Aérodrome :
LOGIN :

S'inscrire | Disclaimer

   EN    FR    IT 

 










Légende :    VFR   VFR Marginal   IFR   IFR Intensif   IFR Très Intensif
Visi : 
Plafond : 
>= 8 km
>= 3000ft
5 à 8 km
1000 à 3000 ft
1500m à 5 km
500 à 1000 ft
800 à 1500m
200 à 500 ft
< 800m
< 200 ft
Symboles :   Orages  Brouillard  Fortes neiges  Fortes précipitations  Vent > 20 kt
SIGMETs :   Divers  Orages  Givrage  Turbulence  Onde Orograph.  Cendres Volcan.






- Altitude de l'aérodrome : 659 ft
- Code IATA : LGG


EBLG - Liège

DERNIER METAR :
  • 301950Z 29006KT 9999 -SHRA SCT012 BKN026 13/12 Q1015 NOSIG

METARs EXPIRÉS :
  • 301920Z 26006KT 9999 -SHRA SCT008 BKN012 13/12 Q1015 NOSIG
  • 301850Z 28004KT 250V310 9999 SCT006 BKN014 13/12 Q1014 TEMPO 3500 SHRA BKN007
  • 301820Z 25008KT 9999 R04R///// SCT006 BKN010 13/13 Q1014 TEMPO 3500 SHRA
  • 301750Z 25004KT 9999 -SHRA SCT006 SCT010TCU 13/12 Q1014 TEMPO 3500 SHRA
  • 301720Z 25006KT 5000 SHRA SCT007 BKN010CB 13/13 Q1014 TEMPO 2500 TSRA BKN014CB
  • 301650Z 29006KT 5000 -SHRA FEW007 SCT012CB BKN014 13/12 Q1014 TEMPO 2500 TSRA BKN014CB

TAF TAF EBLG
Valide du 30 à 18h jusqu'au 02 à 00h UTC


301710Z 3018/0124 27005KT 9999 SCT016 BKN030
TEMPO 3018/3021 4000 RA SHRA BKN007
TEMPO 0101/0104 BKN008



MET'MAP, la Météo Aéronautique d'un coup d'oeil ! - Copyright ORBIFLY Décembre 2007 - Disclaimer

ORBIFLY MET'MAP TEAM :

Programmation & Développement : Alexandra Zaïnal
Sur une idée originale de : Baudouin d'Aumeries
Soutien technique & logistique : Manuel Goepfert
Assistance : Marc-Olivier Méhu




SOURCES & CREDITS :

   NOAA